sensor_id;sensor_type;location;lat;lon;timestamp;P1;durP1;ratioP1;P2;durP2;ratioP2
23866;SDS011;12114;53.404;-1.502;2023-02-11T00:00:10;3.35;;;2.20;;
23866;SDS011;12114;53.404;-1.502;2023-02-11T00:02:35;3.10;;;1.92;;
23866;SDS011;12114;53.404;-1.502;2023-02-11T00:05:01;4.57;;;1.95;;
23866;SDS011;12114;53.404;-1.502;2023-02-11T00:07:30;3.45;;;1.67;;
23866;SDS011;12114;53.404;-1.502;2023-02-11T00:09:55;3.05;;;1.70;;
23866;SDS011;12114;53.404;-1.502;2023-02-11T00:12:21;2.55;;;1.55;;
23866;SDS011;12114;53.404;-1.502;2023-02-11T00:14:46;4.80;;;2.00;;
23866;SDS011;12114;53.404;-1.502;2023-02-11T00:17:12;3.63;;;1.80;;
23866;SDS011;12114;53.404;-1.502;2023-02-11T00:19:37;3.22;;;1.80;;
23866;SDS011;12114;53.404;-1.502;2023-02-11T00:22:02;2.10;;;1.60;;
23866;SDS011;12114;53.404;-1.502;2023-02-11T00:24:28;2.83;;;1.73;;
23866;SDS011;12114;53.404;-1.502;2023-02-11T00:26:54;2.70;;;1.85;;
23866;SDS011;12114;53.404;-1.502;2023-02-11T00:29:19;3.55;;;1.90;;
23866;SDS011;12114;53.404;-1.502;2023-02-11T00:31:44;2.40;;;1.90;;
23866;SDS011;12114;53.404;-1.502;2023-02-11T00:34:10;2.55;;;2.30;;
23866;SDS011;12114;53.404;-1.502;2023-02-11T00:36:35;3.15;;;1.90;;
23866;SDS011;12114;53.404;-1.502;2023-02-11T00:39:00;3.70;;;1.80;;
23866;SDS011;12114;53.404;-1.502;2023-02-11T00:41:26;3.13;;;2.53;;
23866;SDS011;12114;53.404;-1.502;2023-02-11T00:43:51;3.70;;;2.15;;
23866;SDS011;12114;53.404;-1.502;2023-02-11T00:46:16;4.30;;;2.50;;
23866;SDS011;12114;53.404;-1.502;2023-02-11T00:48:42;3.47;;;2.70;;
23866;SDS011;12114;53.404;-1.502;2023-02-11T00:51:07;6.57;;;3.13;;
23866;SDS011;12114;53.404;-1.502;2023-02-11T00:53:33;7.05;;;2.70;;
23866;SDS011;12114;53.404;-1.502;2023-02-11T00:55:58;5.40;;;2.88;;
23866;SDS011;12114;53.404;-1.502;2023-02-11T00:58:23;4.53;;;2.40;;
23866;SDS011;12114;53.404;-1.502;2023-02-11T01:00:49;2.20;;;2.00;;
23866;SDS011;12114;53.404;-1.502;2023-02-11T01:03:14;2.58;;;2.17;;
23866;SDS011;12114;53.404;-1.502;2023-02-11T01:05:39;3.00;;;2.38;;
23866;SDS011;12114;53.404;-1.502;2023-02-11T01:08:05;3.35;;;2.03;;
23866;SDS011;12114;53.404;-1.502;2023-02-11T01:10:31;3.17;;;2.30;;
23866;SDS011;12114;53.404;-1.502;2023-02-11T01:12:57;4.50;;;2.10;;
23866;SDS011;12114;53.404;-1.502;2023-02-11T01:15:22;3.33;;;2.28;;
23866;SDS011;12114;53.404;-1.502;2023-02-11T01:17:47;4.38;;;2.30;;
23866;SDS011;12114;53.404;-1.502;2023-02-11T01:20:14;3.45;;;2.40;;
23866;SDS011;12114;53.404;-1.502;2023-02-11T01:22:40;5.28;;;2.20;;
23866;SDS011;12114;53.404;-1.502;2023-02-11T01:25:06;4.13;;;2.42;;
23866;SDS011;12114;53.404;-1.502;2023-02-11T01:27:31;2.35;;;2.10;;
23866;SDS011;12114;53.404;-1.502;2023-02-11T01:29:57;4.03;;;2.10;;
23866;SDS011;12114;53.404;-1.502;2023-02-11T01:32:22;4.05;;;2.22;;
23866;SDS011;12114;53.404;-1.502;2023-02-11T01:34:47;5.45;;;1.95;;
23866;SDS011;12114;53.404;-1.502;2023-02-11T01:37:12;5.35;;;2.83;;
23866;SDS011;12114;53.404;-1.502;2023-02-11T01:39:38;3.63;;;1.92;;
23866;SDS011;12114;53.404;-1.502;2023-02-11T01:42:03;2.65;;;1.90;;
23866;SDS011;12114;53.404;-1.502;2023-02-11T01:44:30;3.03;;;1.77;;
23866;SDS011;12114;53.404;-1.502;2023-02-11T01:46:55;4.25;;;2.10;;
23866;SDS011;12114;53.404;-1.502;2023-02-11T01:49:23;6.53;;;2.33;;
23866;SDS011;12114;53.404;-1.502;2023-02-11T01:51:54;5.38;;;2.78;;
23866;SDS011;12114;53.404;-1.502;2023-02-11T01:54:21;4.07;;;2.08;;
23866;SDS011;12114;53.404;-1.502;2023-02-11T01:57:05;4.60;;;2.20;;
23866;SDS011;12114;53.404;-1.502;2023-02-11T02:02:15;1.77;;;0.70;;
23866;SDS011;12114;53.404;-1.502;2023-02-11T02:07:29;1.30;;;0.93;;
23866;SDS011;12114;53.404;-1.502;2023-02-11T02:09:58;1.42;;;0.80;;
23866;SDS011;12114;53.404;-1.502;2023-02-11T02:12:25;1.10;;;0.70;;
23866;SDS011;12114;53.404;-1.502;2023-02-11T02:14:50;3.35;;;0.82;;
23866;SDS011;12114;53.404;-1.502;2023-02-11T02:17:22;1.35;;;0.75;;
23866;SDS011;12114;53.404;-1.502;2023-02-11T02:37:15;2.40;;;0.70;;
23866;SDS011;12114;53.404;-1.502;2023-02-11T02:39:41;3.25;;;0.70;;
23866;SDS011;12114;53.404;-1.502;2023-02-11T02:42:09;1.00;;;0.40;;
23866;SDS011;12114;53.404;-1.502;2023-02-11T02:44:34;2.78;;;0.68;;
23866;SDS011;12114;53.404;-1.502;2023-02-11T02:47:00;1.50;;;0.43;;
23866;SDS011;12114;53.404;-1.502;2023-02-11T02:49:25;1.52;;;0.55;;
23866;SDS011;12114;53.404;-1.502;2023-02-11T03:04:50;1.25;;;0.50;;
23866;SDS011;12114;53.404;-1.502;2023-02-11T03:07:19;2.17;;;0.60;;
23866;SDS011;12114;53.404;-1.502;2023-02-11T03:12:11;0.98;;;0.55;;
23866;SDS011;12114;53.404;-1.502;2023-02-11T03:14:38;0.38;;;0.32;;
23866;SDS011;12114;53.404;-1.502;2023-02-11T03:17:04;1.63;;;0.40;;
23866;SDS011;12114;53.404;-1.502;2023-02-11T03:19:40;1.30;;;0.50;;
23866;SDS011;12114;53.404;-1.502;2023-02-11T03:22:08;2.20;;;0.50;;
23866;SDS011;12114;53.404;-1.502;2023-02-11T03:24:36;1.13;;;0.50;;
23866;SDS011;12114;53.404;-1.502;2023-02-11T03:27:04;1.80;;;0.40;;
23866;SDS011;12114;53.404;-1.502;2023-02-11T03:29:47;1.45;;;0.40;;
23866;SDS011;12114;53.404;-1.502;2023-02-11T03:32:29;2.05;;;0.40;;
23866;SDS011;12114;53.404;-1.502;2023-02-11T03:37:35;0.63;;;0.30;;
23866;SDS011;12114;53.404;-1.502;2023-02-11T03:40:08;0.35;;;0.25;;
23866;SDS011;12114;53.404;-1.502;2023-02-11T03:42:36;0.63;;;0.30;;
23866;SDS011;12114;53.404;-1.502;2023-02-11T03:45:04;1.55;;;0.40;;
23866;SDS011;12114;53.404;-1.502;2023-02-11T03:47:30;1.92;;;0.40;;
23866;SDS011;12114;53.404;-1.502;2023-02-11T03:49:59;0.85;;;0.32;;
23866;SDS011;12114;53.404;-1.502;2023-02-11T03:52:26;1.45;;;0.40;;
23866;SDS011;12114;53.404;-1.502;2023-02-11T03:54:52;1.42;;;0.40;;
23866;SDS011;12114;53.404;-1.502;2023-02-11T03:57:19;2.83;;;0.38;;
23866;SDS011;12114;53.404;-1.502;2023-02-11T03:59:54;1.65;;;0.50;;
23866;SDS011;12114;53.404;-1.502;2023-02-11T04:02:21;1.23;;;0.35;;
23866;SDS011;12114;53.404;-1.502;2023-02-11T04:04:47;1.25;;;0.50;;
23866;SDS011;12114;53.404;-1.502;2023-02-11T04:07:12;2.33;;;0.70;;
23866;SDS011;12114;53.404;-1.502;2023-02-11T04:09:38;1.90;;;0.50;;
23866;SDS011;12114;53.404;-1.502;2023-02-11T04:12:03;2.10;;;0.80;;
23866;SDS011;12114;53.404;-1.502;2023-02-11T04:14:28;1.60;;;0.65;;
23866;SDS011;12114;53.404;-1.502;2023-02-11T04:16:53;1.88;;;0.60;;
23866;SDS011;12114;53.404;-1.502;2023-02-11T04:19:19;2.75;;;0.80;;
23866;SDS011;12114;53.404;-1.502;2023-02-11T04:21:44;3.17;;;0.60;;
23866;SDS011;12114;53.404;-1.502;2023-02-11T04:24:09;3.80;;;0.70;;
23866;SDS011;12114;53.404;-1.502;2023-02-11T04:26:34;1.67;;;0.75;;
23866;SDS011;12114;53.404;-1.502;2023-02-11T04:29:00;5.38;;;0.98;;
23866;SDS011;12114;53.404;-1.502;2023-02-11T04:31:25;0.80;;;0.60;;
23866;SDS011;12114;53.404;-1.502;2023-02-11T04:33:50;3.33;;;0.80;;
23866;SDS011;12114;53.404;-1.502;2023-02-11T04:36:16;1.67;;;0.82;;
23866;SDS011;12114;53.404;-1.502;2023-02-11T04:38:41;1.83;;;0.75;;
23866;SDS011;12114;53.404;-1.502;2023-02-11T04:41:06;2.45;;;0.65;;
23866;SDS011;12114;53.404;-1.502;2023-02-11T04:43:31;2.78;;;0.82;;
23866;SDS011;12114;53.404;-1.502;2023-02-11T04:45:57;2.22;;;0.80;;
23866;SDS011;12114;53.404;-1.502;2023-02-11T04:48:23;2.15;;;0.80;;
23866;SDS011;12114;53.404;-1.502;2023-02-11T04:50:48;5.03;;;0.93;;
23866;SDS011;12114;53.404;-1.502;2023-02-11T04:53:13;3.45;;;1.00;;
23866;SDS011;12114;53.404;-1.502;2023-02-11T04:55:38;3.05;;;1.13;;
23866;SDS011;12114;53.404;-1.502;2023-02-11T04:58:04;5.18;;;1.13;;
23866;SDS011;12114;53.404;-1.502;2023-02-11T05:00:29;4.95;;;1.00;;
23866;SDS011;12114;53.404;-1.502;2023-02-11T05:02:54;3.95;;;0.95;;
23866;SDS011;12114;53.404;-1.502;2023-02-11T05:05:20;2.88;;;0.90;;
23866;SDS011;12114;53.404;-1.502;2023-02-11T05:07:45;3.50;;;1.02;;
23866;SDS011;12114;53.404;-1.502;2023-02-11T05:10:10;3.78;;;0.68;;
23866;SDS011;12114;53.404;-1.502;2023-02-11T05:12:36;1.80;;;0.80;;
23866;SDS011;12114;53.404;-1.502;2023-02-11T05:15:01;4.10;;;0.80;;
23866;SDS011;12114;53.404;-1.502;2023-02-11T05:17:26;2.70;;;1.00;;
23866;SDS011;12114;53.404;-1.502;2023-02-11T05:19:51;2.53;;;0.98;;
23866;SDS011;12114;53.404;-1.502;2023-02-11T05:22:17;3.58;;;0.80;;
23866;SDS011;12114;53.404;-1.502;2023-02-11T05:24:42;3.38;;;0.75;;
23866;SDS011;12114;53.404;-1.502;2023-02-11T05:27:07;5.10;;;1.27;;
23866;SDS011;12114;53.404;-1.502;2023-02-11T05:29:33;4.90;;;0.82;;
23866;SDS011;12114;53.404;-1.502;2023-02-11T05:31:58;1.70;;;0.82;;
23866;SDS011;12114;53.404;-1.502;2023-02-11T05:34:24;2.53;;;1.00;;
23866;SDS011;12114;53.404;-1.502;2023-02-11T05:36:49;3.92;;;1.00;;
23866;SDS011;12114;53.404;-1.502;2023-02-11T05:39:14;4.30;;;1.00;;
23866;SDS011;12114;53.404;-1.502;2023-02-11T05:41:40;3.30;;;0.90;;
23866;SDS011;12114;53.404;-1.502;2023-02-11T05:44:05;3.55;;;1.15;;
23866;SDS011;12114;53.404;-1.502;2023-02-11T05:46:30;3.20;;;1.00;;
23866;SDS011;12114;53.404;-1.502;2023-02-11T05:48:55;3.30;;;0.70;;
23866;SDS011;12114;53.404;-1.502;2023-02-11T05:51:21;2.45;;;1.02;;
23866;SDS011;12114;53.404;-1.502;2023-02-11T05:53:47;1.80;;;0.90;;
23866;SDS011;12114;53.404;-1.502;2023-02-11T05:56:12;3.63;;;0.90;;
23866;SDS011;12114;53.404;-1.502;2023-02-11T05:58:38;2.15;;;0.90;;
23866;SDS011;12114;53.404;-1.502;2023-02-11T06:01:04;3.35;;;0.90;;
23866;SDS011;12114;53.404;-1.502;2023-02-11T06:03:29;3.38;;;0.90;;
23866;SDS011;12114;53.404;-1.502;2023-02-11T06:05:54;5.97;;;0.90;;
23866;SDS011;12114;53.404;-1.502;2023-02-11T06:08:19;4.35;;;0.70;;
23866;SDS011;12114;53.404;-1.502;2023-02-11T06:10:45;4.32;;;1.33;;
23866;SDS011;12114;53.404;-1.502;2023-02-11T06:13:10;5.15;;;1.10;;
23866;SDS011;12114;53.404;-1.502;2023-02-11T06:15:35;2.58;;;0.80;;
23866;SDS011;12114;53.404;-1.502;2023-02-11T06:18:01;3.88;;;0.77;;
23866;SDS011;12114;53.404;-1.502;2023-02-11T06:20:26;3.08;;;0.80;;
23866;SDS011;12114;53.404;-1.502;2023-02-11T06:22:51;2.70;;;0.60;;
23866;SDS011;12114;53.404;-1.502;2023-02-11T06:25:16;2.63;;;0.93;;
23866;SDS011;12114;53.404;-1.502;2023-02-11T06:27:42;1.90;;;0.60;;
23866;SDS011;12114;53.404;-1.502;2023-02-11T06:30:07;3.05;;;0.60;;
23866;SDS011;12114;53.404;-1.502;2023-02-11T06:32:33;1.63;;;0.40;;
23866;SDS011;12114;53.404;-1.502;2023-02-11T06:34:58;4.05;;;0.80;;
23866;SDS011;12114;53.404;-1.502;2023-02-11T06:37:24;2.05;;;0.65;;
23866;SDS011;12114;53.404;-1.502;2023-02-11T06:39:49;3.78;;;0.80;;
23866;SDS011;12114;53.404;-1.502;2023-02-11T06:42:15;4.97;;;0.77;;
23866;SDS011;12114;53.404;-1.502;2023-02-11T06:44:40;2.92;;;0.68;;
23866;SDS011;12114;53.404;-1.502;2023-02-11T06:47:05;4.13;;;1.02;;
23866;SDS011;12114;53.404;-1.502;2023-02-11T06:49:31;2.03;;;0.60;;
23866;SDS011;12114;53.404;-1.502;2023-02-11T06:51:56;1.20;;;0.82;;
23866;SDS011;12114;53.404;-1.502;2023-02-11T06:54:21;3.10;;;0.60;;
23866;SDS011;12114;53.404;-1.502;2023-02-11T06:56:46;2.10;;;0.60;;
23866;SDS011;12114;53.404;-1.502;2023-02-11T06:59:15;1.52;;;0.70;;
23866;SDS011;12114;53.404;-1.502;2023-02-11T07:01:41;0.82;;;0.50;;
23866;SDS011;12114;53.404;-1.502;2023-02-11T07:04:06;2.92;;;0.60;;
23866;SDS011;12114;53.404;-1.502;2023-02-11T07:06:32;3.83;;;0.75;;
23866;SDS011;12114;53.404;-1.502;2023-02-11T07:08:57;1.65;;;0.60;;
23866;SDS011;12114;53.404;-1.502;2023-02-11T07:11:24;2.90;;;0.90;;
23866;SDS011;12114;53.404;-1.502;2023-02-11T07:13:50;1.08;;;0.60;;
23866;SDS011;12114;53.404;-1.502;2023-02-11T07:16:16;1.77;;;0.60;;
23866;SDS011;12114;53.404;-1.502;2023-02-11T07:18:41;2.50;;;0.60;;
23866;SDS011;12114;53.404;-1.502;2023-02-11T07:21:08;4.10;;;0.60;;
23866;SDS011;12114;53.404;-1.502;2023-02-11T07:23:34;1.27;;;0.40;;
23866;SDS011;12114;53.404;-1.502;2023-02-11T07:26:06;1.38;;;0.40;;
23866;SDS011;12114;53.404;-1.502;2023-02-11T07:28:33;1.05;;;0.50;;
23866;SDS011;12114;53.404;-1.502;2023-02-11T07:30:58;1.80;;;0.38;;
23866;SDS011;12114;53.404;-1.502;2023-02-11T07:33:23;1.75;;;0.40;;
23866;SDS011;12114;53.404;-1.502;2023-02-11T07:35:49;2.58;;;0.60;;
23866;SDS011;12114;53.404;-1.502;2023-02-11T07:38:14;1.85;;;0.43;;
23866;SDS011;12114;53.404;-1.502;2023-02-11T07:40:39;2.30;;;0.60;;
23866;SDS011;12114;53.404;-1.502;2023-02-11T07:43:04;0.95;;;0.60;;
23866;SDS011;12114;53.404;-1.502;2023-02-11T07:45:30;2.90;;;0.60;;
23866;SDS011;12114;53.404;-1.502;2023-02-11T07:47:55;1.63;;;0.60;;
23866;SDS011;12114;53.404;-1.502;2023-02-11T07:50:20;1.95;;;0.90;;
23866;SDS011;12114;53.404;-1.502;2023-02-11T07:52:46;2.15;;;0.93;;
23866;SDS011;12114;53.404;-1.502;2023-02-11T07:55:11;4.25;;;1.20;;
23866;SDS011;12114;53.404;-1.502;2023-02-11T07:57:36;2.45;;;0.70;;
23866;SDS011;12114;53.404;-1.502;2023-02-11T08:00:02;1.60;;;0.93;;
23866;SDS011;12114;53.404;-1.502;2023-02-11T08:02:28;1.30;;;0.52;;
23866;SDS011;12114;53.404;-1.502;2023-02-11T08:04:53;2.17;;;0.50;;
23866;SDS011;12114;53.404;-1.502;2023-02-11T08:07:18;2.72;;;0.73;;
23866;SDS011;12114;53.404;-1.502;2023-02-11T08:09:44;2.38;;;0.50;;
23866;SDS011;12114;53.404;-1.502;2023-02-11T08:12:09;2.63;;;0.80;;
23866;SDS011;12114;53.404;-1.502;2023-02-11T08:14:34;1.85;;;0.55;;
23866;SDS011;12114;53.404;-1.502;2023-02-11T08:17:00;1.92;;;0.90;;
23866;SDS011;12114;53.404;-1.502;2023-02-11T08:19:25;1.77;;;0.50;;
23866;SDS011;12114;53.404;-1.502;2023-02-11T08:21:54;5.50;;;0.80;;
23866;SDS011;12114;53.404;-1.502;2023-02-11T08:24:19;1.75;;;0.63;;
23866;SDS011;12114;53.404;-1.502;2023-02-11T08:26:45;3.70;;;1.00;;
23866;SDS011;12114;53.404;-1.502;2023-02-11T08:29:11;5.28;;;0.75;;
23866;SDS011;12114;53.404;-1.502;2023-02-11T08:31:38;5.05;;;0.70;;
23866;SDS011;12114;53.404;-1.502;2023-02-11T08:34:03;1.70;;;0.60;;
23866;SDS011;12114;53.404;-1.502;2023-02-11T08:36:33;2.25;;;0.65;;
23866;SDS011;12114;53.404;-1.502;2023-02-11T08:39:00;4.65;;;0.80;;
23866;SDS011;12114;53.404;-1.502;2023-02-11T08:41:29;2.78;;;0.80;;
23866;SDS011;12114;53.404;-1.502;2023-02-11T08:43:54;3.33;;;0.73;;
23866;SDS011;12114;53.404;-1.502;2023-02-11T08:46:20;2.47;;;0.70;;
23866;SDS011;12114;53.404;-1.502;2023-02-11T08:48:45;2.92;;;0.73;;
23866;SDS011;12114;53.404;-1.502;2023-02-11T08:51:18;2.22;;;0.68;;
23866;SDS011;12114;53.404;-1.502;2023-02-11T08:53:45;2.97;;;0.68;;
23866;SDS011;12114;53.404;-1.502;2023-02-11T08:56:10;1.77;;;0.85;;
23866;SDS011;12114;53.404;-1.502;2023-02-11T08:58:36;1.80;;;0.60;;
23866;SDS011;12114;53.404;-1.502;2023-02-11T09:01:07;2.75;;;0.60;;
23866;SDS011;12114;53.404;-1.502;2023-02-11T09:03:32;1.33;;;0.60;;
23866;SDS011;12114;53.404;-1.502;2023-02-11T09:05:57;3.83;;;0.80;;
23866;SDS011;12114;53.404;-1.502;2023-02-11T09:08:23;1.83;;;0.68;;
23866;SDS011;12114;53.404;-1.502;2023-02-11T09:10:48;1.77;;;0.60;;
23866;SDS011;12114;53.404;-1.502;2023-02-11T09:13:13;1.75;;;0.73;;
23866;SDS011;12114;53.404;-1.502;2023-02-11T09:15:43;3.40;;;0.70;;
23866;SDS011;12114;53.404;-1.502;2023-02-11T09:18:08;3.10;;;0.75;;
23866;SDS011;12114;53.404;-1.502;2023-02-11T09:20:33;5.22;;;1.50;;
23866;SDS011;12114;53.404;-1.502;2023-02-11T09:22:59;5.70;;;1.90;;
23866;SDS011;12114;53.404;-1.502;2023-02-11T09:25:24;3.30;;;1.20;;
23866;SDS011;12114;53.404;-1.502;2023-02-11T09:27:49;3.50;;;0.90;;
23866;SDS011;12114;53.404;-1.502;2023-02-11T09:30:16;4.00;;;0.80;;
23866;SDS011;12114;53.404;-1.502;2023-02-11T09:32:41;4.00;;;0.80;;
23866;SDS011;12114;53.404;-1.502;2023-02-11T09:35:07;3.05;;;0.90;;
23866;SDS011;12114;53.404;-1.502;2023-02-11T09:37:32;3.05;;;0.90;;
23866;SDS011;12114;53.404;-1.502;2023-02-11T09:39:57;3.28;;;0.93;;
23866;SDS011;12114;53.404;-1.502;2023-02-11T09:44:55;2.90;;;0.68;;
23866;SDS011;12114;53.404;-1.502;2023-02-11T09:47:28;5.93;;;1.00;;
23866;SDS011;12114;53.404;-1.502;2023-02-11T09:52:41;2.28;;;0.70;;
23866;SDS011;12114;53.404;-1.502;2023-02-11T09:55:18;3.75;;;0.88;;
23866;SDS011;12114;53.404;-1.502;2023-02-11T09:57:44;5.60;;;0.90;;
23866;SDS011;12114;53.404;-1.502;2023-02-11T10:00:23;3.22;;;0.82;;
23866;SDS011;12114;53.404;-1.502;2023-02-11T10:05:23;4.30;;;0.90;;
23866;SDS011;12114;53.404;-1.502;2023-02-11T10:10:34;2.83;;;0.70;;
23866;SDS011;12114;53.404;-1.502;2023-02-11T10:15:44;1.15;;;0.50;;
23866;SDS011;12114;53.404;-1.502;2023-02-11T10:23:18;3.55;;;0.50;;
23866;SDS011;12114;53.404;-1.502;2023-02-11T10:25:48;3.10;;;0.52;;
23866;SDS011;12114;53.404;-1.502;2023-02-11T10:30:45;3.97;;;0.57;;
23866;SDS011;12114;53.404;-1.502;2023-02-11T10:33:14;0.95;;;0.40;;
23866;SDS011;12114;53.404;-1.502;2023-02-11T10:35:44;1.27;;;0.52;;
23866;SDS011;12114;53.404;-1.502;2023-02-11T10:38:10;4.18;;;0.60;;
23866;SDS011;12114;53.404;-1.502;2023-02-11T10:40:35;2.92;;;0.60;;
23866;SDS011;12114;53.404;-1.502;2023-02-11T10:43:05;2.67;;;0.60;;
23866;SDS011;12114;53.404;-1.502;2023-02-11T10:47:56;1.40;;;0.50;;
23866;SDS011;12114;53.404;-1.502;2023-02-11T10:50:30;0.55;;;0.32;;
23866;SDS011;12114;53.404;-1.502;2023-02-11T10:55:46;1.58;;;0.40;;
23866;SDS011;12114;53.404;-1.502;2023-02-11T10:58:18;0.77;;;0.30;;
23866;SDS011;12114;53.404;-1.502;2023-02-11T11:00:48;2.10;;;0.40;;
23866;SDS011;12114;53.404;-1.502;2023-02-11T11:03:18;6.03;;;0.50;;
23866;SDS011;12114;53.404;-1.502;2023-02-11T11:05:45;2.65;;;0.60;;
23866;SDS011;12114;53.404;-1.502;2023-02-11T11:08:11;1.63;;;0.40;;
23866;SDS011;12114;53.404;-1.502;2023-02-11T11:10:41;1.65;;;0.40;;
23866;SDS011;12114;53.404;-1.502;2023-02-11T11:18:35;2.65;;;0.63;;
23866;SDS011;12114;53.404;-1.502;2023-02-11T11:21:02;1.95;;;0.70;;
23866;SDS011;12114;53.404;-1.502;2023-02-11T11:23:29;7.18;;;0.90;;
23866;SDS011;12114;53.404;-1.502;2023-02-11T11:28:33;4.45;;;0.90;;
23866;SDS011;12114;53.404;-1.502;2023-02-11T11:31:02;3.55;;;1.00;;
23866;SDS011;12114;53.404;-1.502;2023-02-11T11:33:30;2.83;;;0.98;;
23866;SDS011;12114;53.404;-1.502;2023-02-11T11:38:26;3.38;;;1.13;;
23866;SDS011;12114;53.404;-1.502;2023-02-11T11:43:36;1.20;;;0.70;;
23866;SDS011;12114;53.404;-1.502;2023-02-11T11:46:01;5.32;;;1.23;;
23866;SDS011;12114;53.404;-1.502;2023-02-11T11:48:30;3.58;;;0.85;;
23866;SDS011;12114;53.404;-1.502;2023-02-11T11:51:03;4.32;;;0.80;;
23866;SDS011;12114;53.404;-1.502;2023-02-11T11:58:29;4.68;;;2.40;;
23866;SDS011;12114;53.404;-1.502;2023-02-11T12:06:02;7.20;;;4.55;;
23866;SDS011;12114;53.404;-1.502;2023-02-11T12:26:17;8.15;;;4.78;;
23866;SDS011;12114;53.404;-1.502;2023-02-11T12:31:39;10.82;;;5.32;;
23866;SDS011;12114;53.404;-1.502;2023-02-11T12:55:33;6.50;;;2.30;;
23866;SDS011;12114;53.404;-1.502;2023-02-11T12:58:02;4.55;;;2.10;;
23866;SDS011;12114;53.404;-1.502;2023-02-11T13:03:14;4.35;;;1.63;;
23866;SDS011;12114;53.404;-1.502;2023-02-11T13:05:53;1.00;;;0.65;;
23866;SDS011;12114;53.404;-1.502;2023-02-11T13:08:24;3.38;;;1.45;;
23866;SDS011;12114;53.404;-1.502;2023-02-11T13:11:36;4.60;;;1.13;;
23866;SDS011;12114;53.404;-1.502;2023-02-11T13:16:16;4.70;;;2.10;;
23866;SDS011;12114;53.404;-1.502;2023-02-11T13:23:40;3.67;;;1.40;;
23866;SDS011;12114;53.404;-1.502;2023-02-11T13:26:20;3.80;;;1.20;;
23866;SDS011;12114;53.404;-1.502;2023-02-11T13:28:48;3.38;;;1.13;;
23866;SDS011;12114;53.404;-1.502;2023-02-11T13:31:16;4.03;;;1.65;;
23866;SDS011;12114;53.404;-1.502;2023-02-11T13:33:44;7.05;;;2.55;;
23866;SDS011;12114;53.404;-1.502;2023-02-11T13:36:11;6.93;;;3.33;;
23866;SDS011;12114;53.404;-1.502;2023-02-11T13:38:37;4.63;;;2.78;;
23866;SDS011;12114;53.404;-1.502;2023-02-11T13:43:30;3.50;;;2.53;;
23866;SDS011;12114;53.404;-1.502;2023-02-11T13:46:00;7.72;;;4.20;;
23866;SDS011;12114;53.404;-1.502;2023-02-11T13:48:35;9.85;;;4.15;;
23866;SDS011;12114;53.404;-1.502;2023-02-11T13:51:10;8.57;;;4.90;;
23866;SDS011;12114;53.404;-1.502;2023-02-11T13:53:43;11.98;;;6.65;;
23866;SDS011;12114;53.404;-1.502;2023-02-11T13:56:11;10.18;;;7.00;;
23866;SDS011;12114;53.404;-1.502;2023-02-11T13:58:47;13.65;;;7.68;;
23866;SDS011;12114;53.404;-1.502;2023-02-11T14:01:35;9.98;;;5.93;;
23866;SDS011;12114;53.404;-1.502;2023-02-11T14:04:05;12.02;;;6.50;;
23866;SDS011;12114;53.404;-1.502;2023-02-11T14:07:20;12.48;;;5.03;;
23866;SDS011;12114;53.404;-1.502;2023-02-11T14:13:04;8.77;;;5.07;;
23866;SDS011;12114;53.404;-1.502;2023-02-11T14:15:37;9.40;;;5.53;;
23866;SDS011;12114;53.404;-1.502;2023-02-11T14:18:20;6.47;;;3.60;;
23866;SDS011;12114;53.404;-1.502;2023-02-11T14:20:47;6.65;;;4.40;;
23866;SDS011;12114;53.404;-1.502;2023-02-11T14:23:21;6.05;;;3.72;;
23866;SDS011;12114;53.404;-1.502;2023-02-11T14:25:56;6.22;;;3.55;;
23866;SDS011;12114;53.404;-1.502;2023-02-11T14:28:25;4.78;;;2.03;;
23866;SDS011;12114;53.404;-1.502;2023-02-11T14:31:03;5.07;;;2.38;;
23866;SDS011;12114;53.404;-1.502;2023-02-11T14:33:52;5.55;;;2.40;;
23866;SDS011;12114;53.404;-1.502;2023-02-11T14:36:41;5.57;;;2.00;;
23866;SDS011;12114;53.404;-1.502;2023-02-11T14:41:54;5.53;;;3.33;;
23866;SDS011;12114;53.404;-1.502;2023-02-11T14:46:45;8.52;;;4.45;;
23866;SDS011;12114;53.404;-1.502;2023-02-11T14:49:15;9.30;;;4.68;;
23866;SDS011;12114;53.404;-1.502;2023-02-11T14:51:42;6.22;;;3.15;;
23866;SDS011;12114;53.404;-1.502;2023-02-11T14:54:11;5.90;;;2.83;;
23866;SDS011;12114;53.404;-1.502;2023-02-11T14:56:39;3.13;;;1.73;;
23866;SDS011;12114;53.404;-1.502;2023-02-11T14:59:16;4.88;;;1.77;;
23866;SDS011;12114;53.404;-1.502;2023-02-11T15:01:43;5.25;;;1.70;;
23866;SDS011;12114;53.404;-1.502;2023-02-11T15:04:32;4.82;;;2.00;;
23866;SDS011;12114;53.404;-1.502;2023-02-11T15:06:56;5.55;;;2.33;;
23866;SDS011;12114;53.404;-1.502;2023-02-11T15:11:57;6.15;;;3.03;;
23866;SDS011;12114;53.404;-1.502;2023-02-11T15:14:27;5.70;;;3.42;;
23866;SDS011;12114;53.404;-1.502;2023-02-11T15:16:53;6.30;;;4.22;;
23866;SDS011;12114;53.404;-1.502;2023-02-11T15:19:21;7.10;;;3.25;;
23866;SDS011;12114;53.404;-1.502;2023-02-11T15:21:47;4.25;;;2.80;;
23866;SDS011;12114;53.404;-1.502;2023-02-11T15:24:22;6.40;;;3.00;;
23866;SDS011;12114;53.404;-1.502;2023-02-11T15:27:01;5.18;;;2.70;;
23866;SDS011;12114;53.404;-1.502;2023-02-11T15:29:32;5.30;;;2.42;;
23866;SDS011;12114;53.404;-1.502;2023-02-11T15:32:02;2.08;;;1.23;;
23866;SDS011;12114;53.404;-1.502;2023-02-11T15:34:28;3.85;;;1.17;;
23866;SDS011;12114;53.404;-1.502;2023-02-11T15:36:53;3.53;;;1.20;;
23866;SDS011;12114;53.404;-1.502;2023-02-11T15:39:29;5.63;;;1.92;;
23866;SDS011;12114;53.404;-1.502;2023-02-11T15:47:33;3.10;;;1.10;;
23866;SDS011;12114;53.404;-1.502;2023-02-11T15:49:59;2.10;;;1.15;;
23866;SDS011;12114;53.404;-1.502;2023-02-11T15:52:25;3.00;;;1.23;;
23866;SDS011;12114;53.404;-1.502;2023-02-11T15:54:52;2.67;;;1.67;;
23866;SDS011;12114;53.404;-1.502;2023-02-11T15:57:17;3.17;;;1.38;;
23866;SDS011;12114;53.404;-1.502;2023-02-11T15:59:45;4.00;;;1.80;;
23866;SDS011;12114;53.404;-1.502;2023-02-11T16:02:33;4.38;;;1.70;;
23866;SDS011;12114;53.404;-1.502;2023-02-11T16:05:05;4.32;;;1.80;;
23866;SDS011;12114;53.404;-1.502;2023-02-11T16:10:19;4.97;;;1.75;;
23866;SDS011;12114;53.404;-1.502;2023-02-11T16:12:51;2.55;;;1.50;;
23866;SDS011;12114;53.404;-1.502;2023-02-11T16:15:27;7.75;;;2.25;;
23866;SDS011;12114;53.404;-1.502;2023-02-11T16:17:53;4.78;;;2.05;;
23866;SDS011;12114;53.404;-1.502;2023-02-11T16:20:18;5.25;;;2.50;;
23866;SDS011;12114;53.404;-1.502;2023-02-11T16:22:44;6.03;;;3.05;;
23866;SDS011;12114;53.404;-1.502;2023-02-11T16:25:17;7.00;;;2.10;;
23866;SDS011;12114;53.404;-1.502;2023-02-11T16:27:42;5.10;;;2.15;;
23866;SDS011;12114;53.404;-1.502;2023-02-11T16:32:46;8.87;;;3.07;;
23866;SDS011;12114;53.404;-1.502;2023-02-11T16:35:12;6.68;;;3.00;;
23866;SDS011;12114;53.404;-1.502;2023-02-11T16:37:37;8.93;;;3.00;;
23866;SDS011;12114;53.404;-1.502;2023-02-11T16:40:03;7.20;;;3.05;;
23866;SDS011;12114;53.404;-1.502;2023-02-11T16:42:28;6.00;;;3.10;;
23866;SDS011;12114;53.404;-1.502;2023-02-11T16:44:53;5.70;;;2.50;;
23866;SDS011;12114;53.404;-1.502;2023-02-11T16:47:22;4.32;;;1.75;;
23866;SDS011;12114;53.404;-1.502;2023-02-11T16:49:47;6.15;;;2.08;;
23866;SDS011;12114;53.404;-1.502;2023-02-11T16:52:13;4.35;;;2.10;;
23866;SDS011;12114;53.404;-1.502;2023-02-11T16:54:39;6.80;;;2.85;;
23866;SDS011;12114;53.404;-1.502;2023-02-11T16:57:14;3.92;;;2.30;;
23866;SDS011;12114;53.404;-1.502;2023-02-11T16:59:40;5.80;;;2.75;;
23866;SDS011;12114;53.404;-1.502;2023-02-11T17:02:09;6.25;;;2.72;;
23866;SDS011;12114;53.404;-1.502;2023-02-11T17:04:37;6.50;;;2.08;;
23866;SDS011;12114;53.404;-1.502;2023-02-11T17:07:03;3.58;;;1.17;;
23866;SDS011;12114;53.404;-1.502;2023-02-11T17:09:28;3.05;;;1.00;;
23866;SDS011;12114;53.404;-1.502;2023-02-11T17:11:53;1.83;;;0.90;;
23866;SDS011;12114;53.404;-1.502;2023-02-11T17:14:19;1.88;;;0.80;;
23866;SDS011;12114;53.404;-1.502;2023-02-11T17:16:45;4.68;;;1.55;;
23866;SDS011;12114;53.404;-1.502;2023-02-11T17:19:11;2.05;;;0.90;;
23866;SDS011;12114;53.404;-1.502;2023-02-11T17:21:36;5.80;;;0.85;;